Time;durP1;ratioP1;P1;durP2;ratioP2;P2;SDS_P1;SDS_P2;PMS_P1;PMS_P2;Temp;Humidity;BMP_temperature;BMP_pressure;BME280_temperature;BME280_humidity;BME280_pressure;Samples;Min_cycle;Max_cycle;Signal;HPM_P1;HPM_P2
2021/06/09 00:01:28;;;;;;;0.00;0.00;;;;;;;21.75;52.83;102316.06;5051859;28;20029;-82
2021/06/09 00:03:55;;;;;;;0.10;0.10;;;;;;;21.73;52.17;102326.00;5054214;28;20025;-82
2021/06/09 00:06:21;;;;;;;0.00;0.00;;;;;;;21.67;52.64;102311.00;5055944;28;20028;-82
2021/06/09 00:08:48;;;;;;;0.00;0.00;;;;;;;21.63;53.17;102312.94;5051817;28;20027;-82
2021/06/09 00:11:14;;;;;;;0.00;0.00;;;;;;;21.64;51.78;102314.66;5055354;28;20036;-82
2021/06/09 00:13:41;;;;;;;0.10;0.10;;;;;;;21.63;52.08;102314.75;5066896;28;20051;-82
2021/06/09 00:16:14;;;;;;;0.00;0.00;;;;;;;21.62;53.34;102318.38;5060794;28;20106;-82
2021/06/09 00:18:41;;;;;;;0.10;0.10;;;;;;;21.58;53.42;102317.66;5051459;28;20025;-82
2021/06/09 00:21:08;;;;;;;0.10;0.10;;;;;;;21.55;53.91;102320.44;5057369;28;20116;-82
2021/06/09 00:23:35;;;;;;;0.20;0.20;;;;;;;21.53;54.65;102322.31;5051400;28;20036;-82
2021/06/09 00:26:04;;;;;;;0.30;0.30;;;;;;;21.52;54.76;102325.09;5063391;28;20025;-82
2021/06/09 00:28:31;;;;;;;0.10;0.10;;;;;;;21.49;55.07;102320.72;5052373;28;20467;-82
2021/06/09 00:31:00;;;;;;;0.25;0.25;;;;;;;21.46;55.60;102320.84;5061917;28;20039;-81
2021/06/09 00:33:28;;;;;;;0.10;0.10;;;;;;;21.43;55.83;102320.97;5053828;28;20388;-82
2021/06/09 00:35:56;;;;;;;0.00;0.00;;;;;;;21.41;55.56;102322.84;5063644;28;20028;-82
2021/06/09 00:38:23;;;;;;;0.20;0.20;;;;;;;21.39;55.47;102320.22;5066418;28;20028;-82
2021/06/09 00:40:50;;;;;;;0.25;0.20;;;;;;;21.38;54.60;102320.28;5069922;28;20047;-83
2021/06/09 00:43:19;;;;;;;0.10;0.10;;;;;;;21.36;55.01;102319.47;5053252;28;20108;-82
2021/06/09 00:47:13;;;;;;;0.05;0.05;;;;;;;21.43;55.24;102323.66;5053020;28;20476;-82
2021/06/09 00:49:12;;;;;;;0.10;0.10;;;;;;;21.33;55.76;102328.56;5043316;28;20052;-82
2021/06/09 00:51:38;;;;;;;0.00;0.00;;;;;;;21.33;54.95;102320.47;5045067;28;20028;-82
2021/06/09 00:54:05;;;;;;;0.00;0.00;;;;;;;21.28;55.16;102318.00;5061452;28;20068;-82
2021/06/09 00:56:34;;;;;;;0.03;0.03;;;;;;;21.27;55.36;102312.63;5068682;28;20024;-82
2021/06/09 00:59:00;;;;;;;0.35;0.35;;;;;;;21.22;55.85;102311.97;5054599;28;20609;-82
2021/06/09 01:01:28;;;;;;;0.10;0.10;;;;;;;21.20;55.94;102309.34;5056358;28;20471;-82
2021/06/09 01:03:55;;;;;;;0.00;0.00;;;;;;;21.18;56.19;102311.22;5064356;28;20029;-82
2021/06/09 01:06:23;;;;;;;0.20;0.20;;;;;;;21.17;55.97;102314.84;5062517;28;20029;-82
2021/06/09 01:08:52;;;;;;;0.10;0.10;;;;;;;21.17;55.76;102309.44;5058627;28;20031;-81
2021/06/09 01:11:22;;;;;;;0.00;0.00;;;;;;;21.18;55.69;102311.22;5052438;28;20460;-82
2021/06/09 01:13:49;;;;;;;0.00;0.00;;;;;;;21.15;56.28;102311.34;5049346;28;20435;-82
2021/06/09 01:16:17;;;;;;;0.03;0.03;;;;;;;21.14;56.59;102314.97;5060543;28;20447;-82
2021/06/09 01:18:44;;;;;;;0.00;0.00;;;;;;;21.12;56.08;102308.78;5057322;28;20451;-82
2021/06/09 01:21:10;;;;;;;0.03;0.03;;;;;;;21.10;56.63;102310.66;5055105;28;20025;-82
2021/06/09 01:23:38;;;;;;;0.08;0.08;;;;;;;21.07;56.67;102313.47;5064965;28;20067;-82
2021/06/09 01:26:07;;;;;;;0.00;0.00;;;;;;;21.06;56.05;102314.41;5065712;28;20021;-82
2021/06/09 01:28:36;;;;;;;0.10;0.10;;;;;;;21.04;56.08;102311.78;5065030;28;20074;-82
2021/06/09 01:31:03;;;;;;;0.00;0.00;;;;;;;21.01;56.93;102311.94;5059719;28;20037;-82
2021/06/09 01:33:31;;;;;;;0.10;0.10;;;;;;;21.00;56.89;102305.63;5042999;28;20369;-82
2021/06/09 01:35:57;;;;;;;0.95;0.95;;;;;;;21.00;56.93;102302.94;5064623;28;20040;-82
2021/06/09 01:38:24;;;;;;;0.43;0.22;;;;;;;20.98;56.57;102302.13;5054111;28;20025;-82
2021/06/09 01:40:51;;;;;;;4.38;1.10;;;;;;;20.99;55.91;102301.19;5064555;28;20463;-82
2021/06/09 01:43:18;;;;;;;0.10;0.10;;;;;;;21.01;56.09;102309.22;5052644;28;20123;-82
2021/06/09 01:45:44;;;;;;;0.03;0.03;;;;;;;20.99;56.03;102300.31;5053682;28;20029;-82
2021/06/09 01:48:12;;;;;;;0.00;0.00;;;;;;;20.99;56.35;102301.19;5064913;28;20108;-82
2021/06/09 01:50:40;;;;;;;0.10;0.10;;;;;;;21.01;55.90;102304.69;5066307;28;20486;-82
2021/06/09 01:53:07;;;;;;;0.00;0.00;;;;;;;20.98;56.36;102304.81;5060546;28;20107;-82
2021/06/09 01:55:35;;;;;;;0.10;0.10;;;;;;;20.99;56.69;102306.56;5042305;28;20025;-82
2021/06/09 01:58:03;;;;;;;0.20;0.20;;;;;;;21.01;55.94;102304.69;5046825;28;20135;-82
2021/06/09 02:00:39;;;;;;;0.15;0.15;;;;;;;21.05;55.95;102309.94;5067308;28;20048;-82
2021/06/09 02:03:06;;;;;;;0.10;0.10;;;;;;;21.00;56.23;102305.63;5065692;28;20024;-82
2021/06/09 02:05:35;;;;;;;0.00;0.00;;;;;;;20.99;56.70;102309.28;5043773;28;20036;-82
2021/06/09 02:08:06;;;;;;;0.08;0.08;;;;;;;21.00;56.16;102302.94;5054999;28;20078;-82
2021/06/09 02:10:34;;;;;;;0.10;0.10;;;;;;;20.96;56.47;102304.03;5055946;28;20107;-82
2021/06/09 02:13:04;;;;;;;0.10;0.10;;;;;;;20.94;56.74;102297.81;5067793;28;20027;-82
2021/06/09 02:15:30;;;;;;;0.10;0.10;;;;;;;20.88;57.15;102298.06;5047661;28;20119;-82
2021/06/09 02:18:09;;;;;;;0.10;0.10;;;;;;;20.85;57.61;102293.66;5055939;28;20025;-82
2021/06/09 02:20:39;;;;;;;0.05;0.05;;;;;;;20.84;57.40;102285.66;5053727;28;20513;-82
2021/06/09 02:23:09;;;;;;;0.43;0.43;;;;;;;20.81;57.29;102286.66;5069451;28;20052;-82
2021/06/09 02:25:37;;;;;;;0.63;0.63;;;;;;;20.76;57.55;102282.38;5061541;28;20084;-82
2021/06/09 02:28:05;;;;;;;0.10;0.10;;;;;;;20.74;56.88;102284.28;5058353;28;20028;-82
2021/06/09 02:30:32;;;;;;;0.20;0.20;;;;;;;20.71;57.31;102285.28;5057024;28;20032;-82
2021/06/09 02:32:59;;;;;;;0.10;0.10;;;;;;;20.69;57.40;102282.59;5052038;28;20434;-83
2021/06/09 02:35:26;;;;;;;0.10;0.10;;;;;;;20.68;56.94;102275.44;5041203;28;20041;-82
2021/06/09 02:37:54;;;;;;;0.00;0.00;;;;;;;20.65;57.42;102283.66;5052359;28;20419;-82
2021/06/09 02:40:22;;;;;;;0.00;0.00;;;;;;;20.65;57.37;102283.66;5053658;28;20055;-82
2021/06/09 02:42:49;;;;;;;0.32;0.32;;;;;;;20.62;57.53;102285.59;5053379;28;20024;-82
2021/06/09 02:45:19;;;;;;;0.65;0.65;;;;;;;20.61;57.82;102290.13;5052167;28;20107;-82
2021/06/09 02:47:49;;;;;;;0.60;0.60;;;;;;;20.61;57.34;102290.13;5061526;28;20013;-82
2021/06/09 02:50:18;;;;;;;0.10;0.10;;;;;;;20.57;58.14;102299.22;5059918;28;20021;-82
2021/06/09 02:53:09;;;;;;;0.10;0.10;;;;;;;20.57;58.23;102288.47;5057338;28;20638;-82
2021/06/09 02:56:16;;;;;;;0.10;0.10;;;;;;;20.61;57.06;102284.72;5053574;28;20041;-82
2021/06/09 02:59:14;;;;;;;0.10;0.10;;;;;;;20.60;56.68;102282.06;5041986;28;20032;-82
2021/06/09 03:02:05;;;;;;;0.10;0.10;;;;;;;20.51;58.11;102288.69;5064984;28;20032;-82
2021/06/09 03:04:48;;;;;;;0.10;0.10;;;;;;;20.53;57.83;102285.00;5062308;28;20056;-82
2021/06/09 03:07:39;;;;;;;0.00;0.00;;;;;;;20.52;57.75;102274.31;5043727;28;20090;-82
2021/06/09 03:13:29;;;;;;;0.15;0.15;;;;;;;20.47;57.87;102282.59;5093564;27;20166;-81
2021/06/09 03:16:06;;;;;;;0.13;0.13;;;;;;;20.42;58.41;102289.06;5071340;28;20041;-80
2021/06/09 03:18:40;;;;;;;0.10;0.10;;;;;;;20.44;58.33;102289.91;5064383;28;20028;-80
2021/06/09 03:21:12;;;;;;;0.20;0.20;;;;;;;20.42;57.90;102287.25;5075775;28;20020;-80
2021/06/09 03:27:02;;;;;;;0.10;0.10;;;;;;;20.49;58.33;102290.59;5080871;27;20161;-80
2021/06/09 03:32:13;;;;;;;0.10;0.10;;;;;;;20.42;59.16;102286.38;5074507;27;20157;-80
2021/06/09 03:34:46;;;;;;;5.85;0.82;;;;;;;20.37;59.40;102283.84;5062066;28;20024;-80
2021/06/09 03:37:18;;;;;;;0.20;0.20;;;;;;;20.28;58.03;102287.78;5073365;28;20033;-80
2021/06/09 03:39:46;;;;;;;0.10;0.10;;;;;;;20.19;58.32;102282.75;5069885;28;20025;-80
2021/06/09 03:42:18;;;;;;;0.65;0.65;;;;;;;20.18;58.33;102281.00;5073109;28;20025;-80
2021/06/09 03:44:50;;;;;;;0.05;0.05;;;;;;;20.19;58.41;102288.16;5056358;28;20048;-80
2021/06/09 03:47:19;;;;;;;0.57;0.45;;;;;;;20.15;58.24;102283.78;5078945;28;20029;-80
2021/06/09 03:49:47;;;;;;;0.40;0.40;;;;;;;20.15;58.33;102289.16;5070078;28;20021;-80
2021/06/09 03:52:15;;;;;;;0.10;0.10;;;;;;;20.14;58.23;102280.22;5074617;28;20078;-80
2021/06/09 03:54:48;;;;;;;1.20;1.10;;;;;;;20.19;57.84;102282.75;5074935;28;20497;-81
2021/06/09 03:57:16;;;;;;;0.70;0.28;;;;;;;20.18;57.99;102281.00;5066021;28;20040;-81
2021/06/09 03:59:46;;;;;;;0.10;0.10;;;;;;;20.19;58.35;102277.38;5077668;28;20029;-81
2021/06/09 04:02:13;;;;;;;0.85;0.77;;;;;;;20.20;58.24;102280.00;5069211;28;20040;-80
2021/06/09 04:04:40;;;;;;;0.55;0.55;;;;;;;20.24;58.07;102280.78;5069915;28;20078;-80
2021/06/09 04:07:08;;;;;;;0.00;0.00;;;;;;;20.28;58.11;102274.31;5071955;28;20040;-80
2021/06/09 04:09:38;;;;;;;0.20;0.20;;;;;;;20.32;58.05;102278.63;5069454;28;20025;-81
2021/06/09 04:12:07;;;;;;;0.15;0.15;;;;;;;20.37;57.73;102275.78;5081188;28;20033;-81
2021/06/09 04:14:37;;;;;;;0.20;0.20;;;;;;;20.39;58.09;102278.41;5082009;28;20384;-81
2021/06/09 04:17:05;;;;;;;0.00;0.00;;;;;;;20.41;57.77;102276.53;5076572;28;20074;-81
2021/06/09 04:19:33;;;;;;;0.98;0.98;;;;;;;20.42;57.17;102279.16;5070860;28;20058;-81
2021/06/09 04:22:03;;;;;;;1.98;0.90;;;;;;;20.40;58.38;102281.06;5070527;28;20106;-81
2021/06/09 04:24:31;;;;;;;0.35;0.35;;;;;;;20.39;58.04;102279.31;5082661;28;20036;-81
2021/06/09 04:26:59;;;;;;;0.05;0.05;;;;;;;20.42;57.91;102284.56;5076709;28;20077;-81
2021/06/09 04:29:26;;;;;;;0.13;0.13;;;;;;;20.45;58.19;102278.16;5072268;28;20025;-81
2021/06/09 04:31:52;;;;;;;0.55;0.55;;;;;;;20.47;57.53;102271.81;5071599;28;20036;-81
2021/06/09 04:34:19;;;;;;;0.10;0.10;;;;;;;20.50;58.45;102281.59;5074065;28;20039;-81
2021/06/09 04:36:51;;;;;;;1.10;0.20;;;;;;;20.58;57.49;102289.34;5071023;28;20024;-81
2021/06/09 04:39:17;;;;;;;0.00;0.00;;;;;;;20.58;57.44;102282.16;5068537;28;20075;-81
2021/06/09 04:41:44;;;;;;;0.10;0.10;;;;;;;20.59;57.72;102281.22;5070096;28;20021;-80
2021/06/09 04:44:14;;;;;;;0.00;0.00;;;;;;;20.63;57.80;102282.84;5057820;28;20341;-81
2021/06/09 04:46:41;;;;;;;0.28;0.28;;;;;;;20.71;57.46;102284.34;5051880;28;20048;-81
2021/06/09 04:49:07;;;;;;;0.82;0.43;;;;;;;20.74;57.35;102285.16;5070158;28;20039;-81
2021/06/09 04:51:36;;;;;;;0.10;0.10;;;;;;;20.79;57.29;102282.28;5055154;28;20029;-81
2021/06/09 04:54:06;;;;;;;0.45;0.45;;;;;;;20.84;57.58;102282.97;5059486;28;20100;-81
2021/06/09 04:56:36;;;;;;;0.10;0.10;;;;;;;20.84;57.89;102291.03;5060244;28;20043;-81
2021/06/09 04:59:05;;;;;;;0.10;0.10;;;;;;;20.90;57.69;102279.13;5072025;28;20035;-81
2021/06/09 05:01:31;;;;;;;0.55;0.55;;;;;;;20.94;57.54;102284.34;5067282;28;20033;-80
2021/06/09 05:03:58;;;;;;;0.40;0.40;;;;;;;21.03;56.97;102284.91;5060918;28;20021;-81
2021/06/09 05:06:25;;;;;;;0.00;0.00;;;;;;;21.08;56.58;102277.50;5058123;28;20171;-81
2021/06/09 05:08:52;;;;;;;0.10;0.10;;;;;;;21.12;56.76;102277.31;5054981;28;20082;-81
2021/06/09 05:11:26;;;;;;;0.10;0.10;;;;;;;21.18;56.71;102268.09;5063947;28;20135;-81
2021/06/09 05:13:55;;;;;;;0.93;0.50;;;;;;;21.25;56.63;102279.50;5063355;28;20463;-81
2021/06/09 05:16:22;;;;;;;7.68;2.33;;;;;;;21.22;56.95;102275.13;5062481;28;20538;-81
2021/06/09 05:18:53;;;;;;;1.67;1.58;;;;;;;21.30;56.28;102282.88;5056984;28;20036;-81
2021/06/09 05:21:28;;;;;;;0.35;0.35;;;;;;;21.30;56.45;102272.97;5064504;28;20056;-81
2021/06/09 05:23:57;;;;;;;0.30;0.30;;;;;;;21.35;56.65;102272.78;5066219;28;20017;-81
2021/06/09 05:26:24;;;;;;;2.75;1.08;;;;;;;21.34;56.84;102274.56;5064131;28;20028;-81
2021/06/09 05:28:56;;;;;;;0.20;0.20;;;;;;;21.43;56.36;102270.63;5058741;28;20029;-81
2021/06/09 05:31:24;;;;;;;0.30;0.30;;;;;;;21.46;56.48;102277.72;5054274;28;20033;-81
2021/06/09 05:33:54;;;;;;;0.10;0.10;;;;;;;21.47;56.25;102274.94;5064544;28;20106;-81
2021/06/09 05:36:21;;;;;;;0.20;0.20;;;;;;;21.45;56.51;102275.94;5063257;28;20052;-81
2021/06/09 05:38:47;;;;;;;1.98;0.73;;;;;;;21.53;56.15;102278.31;5059964;28;20028;-81
2021/06/09 05:41:14;;;;;;;0.20;0.20;;;;;;;21.57;56.09;102271.84;5055936;28;20447;-81
2021/06/09 05:43:41;;;;;;;2.83;1.00;;;;;;;21.61;56.04;102270.81;5054342;28;20036;-81
2021/06/09 05:46:09;;;;;;;0.10;0.10;;;;;;;21.69;56.52;102273.16;5061301;28;20029;-81
2021/06/09 05:48:40;;;;;;;0.30;0.30;;;;;;;21.77;56.34;102271.88;5048481;28;20025;-81
2021/06/09 05:51:08;;;;;;;0.40;0.32;;;;;;;21.80;57.09;102273.56;5054024;28;20044;-80
2021/06/09 05:53:34;;;;;;;0.50;0.50;;;;;;;21.91;55.72;102267.69;5054386;28;20496;-81
2021/06/09 05:56:00;;;;;;;0.17;0.17;;;;;;;21.95;56.08;102270.16;5053390;28;20491;-81
2021/06/09 05:58:26;;;;;;;0.88;0.88;;;;;;;22.02;56.09;102276.16;5055842;28;20036;-81
2021/06/09 06:00:56;;;;;;;0.40;0.40;;;;;;;22.11;55.77;102272.16;5056628;28;20024;-81
2021/06/09 06:03:24;;;;;;;0.30;0.30;;;;;;;22.17;55.72;102274.59;5048004;28;20032;-80
2021/06/09 06:05:58;;;;;;;0.03;0.03;;;;;;;22.27;55.85;102273.19;5054845;28;20036;-81
2021/06/09 06:08:30;;;;;;;0.10;0.10;;;;;;;22.36;55.04;102279.13;5057771;28;20495;-82
2021/06/09 06:11:00;;;;;;;1.45;0.98;;;;;;;22.39;55.51;102274.50;5054992;28;20404;-81
2021/06/09 06:13:27;;;;;;;0.10;0.10;;;;;;;22.45;55.42;102278.72;5053410;28;20114;-81
2021/06/09 06:15:56;;;;;;;0.35;0.35;;;;;;;22.51;55.34;102278.41;5056204;28;20043;-82
2021/06/09 06:18:31;;;;;;;0.30;0.30;;;;;;;22.59;55.08;102273.53;5055298;28;20032;-82
2021/06/09 06:21:00;;;;;;;0.22;0.22;;;;;;;22.62;55.10;102273.38;5060112;28;20036;-82
2021/06/09 06:23:27;;;;;;;0.95;0.95;;;;;;;22.68;55.47;102274.00;5057204;28;20464;-83
2021/06/09 06:25:55;;;;;;;0.22;0.22;;;;;;;22.77;54.70;102276.28;5053449;28;20036;-82
2021/06/09 06:28:22;;;;;;;0.40;0.40;;;;;;;22.84;54.02;102276.84;5054540;28;20120;-81
2021/06/09 06:30:50;;;;;;;0.20;0.20;;;;;;;22.87;54.50;102274.88;5051615;28;20025;-81
2021/06/09 06:33:18;;;;;;;0.50;0.50;;;;;;;22.99;54.16;102283.31;5053727;28;20028;-81
2021/06/09 06:35:46;;;;;;;0.82;0.70;;;;;;;22.99;53.41;102283.31;5048089;28;20027;-81
2021/06/09 06:38:14;;;;;;;0.10;0.10;;;;;;;23.09;53.56;102284.59;5051990;28;20035;-82
2021/06/09 06:40:42;;;;;;;0.00;0.00;;;;;;;23.09;53.41;102285.50;5048539;28;20028;-81
2021/06/09 06:43:09;;;;;;;1.08;0.65;;;;;;;23.19;53.29;102280.53;5048704;28;20029;-81
2021/06/09 06:45:35;;;;;;;0.35;0.35;;;;;;;23.24;53.16;102283.88;5052254;28;20388;-81
2021/06/09 06:48:02;;;;;;;0.10;0.10;;;;;;;23.28;53.44;102273.78;5062054;28;20380;-81
2021/06/09 06:50:29;;;;;;;0.70;0.70;;;;;;;23.25;53.38;102277.53;5062623;28;20029;-81
2021/06/09 06:52:57;;;;;;;0.63;0.63;;;;;;;23.35;53.11;102279.75;5056762;28;20154;-81
2021/06/09 06:55:24;;;;;;;0.70;0.50;;;;;;;23.36;53.07;102284.19;5056844;28;20025;-81
2021/06/09 06:57:51;;;;;;;1.23;1.13;;;;;;;23.41;53.11;102279.44;5054010;28;20442;-79
2021/06/09 07:00:22;;;;;;;0.52;0.52;;;;;;;23.47;53.14;102283.66;5061887;28;20056;-82
2021/06/09 07:02:52;;;;;;;0.40;0.40;;;;;;;23.42;53.40;102283.88;5052465;28;20025;-84
2021/06/09 07:05:20;;;;;;;0.20;0.20;;;;;;;23.43;53.69;102285.66;5053819;28;20104;-82
2021/06/09 07:07:47;;;;;;;0.13;0.13;;;;;;;23.51;53.47;102279.84;5055547;28;20040;-83
2021/06/09 07:10:16;;;;;;;0.55;0.55;;;;;;;23.65;53.09;102287.22;5052345;28;20130;-84
2021/06/09 07:12:43;;;;;;;0.20;0.20;;;;;;;23.66;52.93;102283.56;5052248;28;20033;-83
2021/06/09 07:15:13;;;;;;;0.10;0.10;;;;;;;23.70;53.00;102282.44;5056529;28;20551;-83
2021/06/09 07:17:45;;;;;;;0.38;0.38;;;;;;;23.75;52.61;102288.47;5059417;28;20039;-84
2021/06/09 07:20:13;;;;;;;1.65;1.58;;;;;;;23.77;52.28;102291.97;5043090;28;20121;-83
2021/06/09 07:22:41;;;;;;;0.43;0.43;;;;;;;23.89;52.12;102291.34;5046583;28;20028;-83
2021/06/09 07:25:09;;;;;;;0.75;0.75;;;;;;;23.85;51.62;102295.16;5040552;28;20056;-84
2021/06/09 07:27:38;;;;;;;0.93;0.93;;;;;;;23.90;50.51;102294.91;5036149;28;20082;-84
2021/06/09 07:30:07;;;;;;;0.98;0.93;;;;;;;23.86;49.93;102293.31;5038565;28;20036;-87
2021/06/09 07:32:41;;;;;;;0.00;0.00;;;;;;;23.97;49.00;102292.78;5025134;23;20058;-90
2021/06/09 07:35:08;;;;;;;1.17;1.02;;;;;;;23.98;49.22;102291.84;5016169;28;20486;-88
2021/06/09 07:37:42;;;;;;;0.75;0.75;;;;;;;24.14;49.71;102290.03;4996928;28;20045;-86
2021/06/09 07:40:30;;;;;;;0.55;0.55;;;;;;;24.32;49.11;102292.69;5006993;28;20045;-93
2021/06/09 07:43:06;;;;;;;0.70;0.70;;;;;;;24.32;49.14;102284.56;4988871;28;20073;-94
2021/06/09 07:45:34;;;;;;;0.10;0.10;;;;;;;24.39;48.29;102294.97;4989802;28;20072;-92
2021/06/09 07:48:01;;;;;;;1.42;0.68;;;;;;;24.51;48.09;102289.81;4988912;28;20035;-92
2021/06/09 07:53:25;;;;;;;0.10;0.10;;;;;;;24.51;47.69;102293.41;5133506;27;20417;-85
2021/06/09 07:55:52;;;;;;;1.27;1.27;;;;;;;24.55;47.10;102295.00;5103265;28;20035;-85
2021/06/09 07:58:22;;;;;;;0.60;0.60;;;;;;;24.60;46.25;102301.97;5096713;28;20085;-78
2021/06/09 08:00:52;;;;;;;0.68;0.68;;;;;;;24.65;46.46;102284.53;5101628;28;20028;-89
2021/06/09 08:03:19;;;;;;;0.25;0.25;;;;;;;24.73;45.94;102296.78;5087119;28;20052;-88
2021/06/09 08:05:45;;;;;;;0.40;0.40;;;;;;;24.77;44.92;102291.06;5087840;28;20371;-90
2021/06/09 08:08:13;;;;;;;1.02;0.45;;;;;;;24.83;45.21;102292.56;5087621;28;20028;-79
2021/06/09 08:10:40;;;;;;;0.32;0.32;;;;;;;24.89;44.87;102296.78;5088445;28;20042;-90
2021/06/09 08:13:09;;;;;;;3.20;1.13;;;;;;;24.90;44.79;102293.09;5088297;28;20111;-87
2021/06/09 08:15:35;;;;;;;0.20;0.20;;;;;;;24.99;44.10;102287.13;5088477;28;20032;-82
2021/06/09 08:18:03;;;;;;;1.00;0.80;;;;;;;24.98;44.00;102290.81;5082143;28;20787;-82
2021/06/09 08:20:30;;;;;;;0.22;0.22;;;;;;;25.05;43.61;102292.22;5084695;28;20024;-85
2021/06/09 08:22:57;;;;;;;0.30;0.30;;;;;;;25.01;43.10;102290.63;5089260;28;20036;-83
2021/06/09 08:25:25;;;;;;;2.75;1.08;;;;;;;25.15;43.22;102293.41;5088093;28;20025;-83
2021/06/09 08:27:53;;;;;;;0.13;0.13;;;;;;;25.13;42.09;102298.03;5088030;28;20043;-84
2021/06/09 08:30:25;;;;;;;0.10;0.10;;;;;;;25.26;41.26;102306.34;5089795;28;20081;-82
2021/06/09 08:32:51;;;;;;;;;;;;;;;25.45;41.28;102306.13;5088650;28;21282;-83
2021/06/09 08:35:18;;;;;;;0.50;0.50;;;;;;;25.37;40.91;102300.28;5088451;28;20406;-83
2021/06/09 08:37:44;;;;;;;1.42;1.33;;;;;;;25.41;40.03;102311.81;5085746;28;20103;-84
2021/06/09 08:40:12;;;;;;;0.20;0.20;;;;;;;25.19;39.88;102318.50;5086142;28;20040;-84
2021/06/09 08:42:40;;;;;;;0.17;0.17;;;;;;;25.18;40.79;102309.50;5088088;28;20554;-84
2021/06/09 08:45:10;;;;;;;0.73;0.73;;;;;;;25.33;39.59;102312.25;5086743;28;20043;-84
2021/06/09 08:47:38;;;;;;;0.75;0.75;;;;;;;25.49;40.05;102307.69;5087234;28;20032;-84
2021/06/09 08:50:06;;;;;;;0.17;0.17;;;;;;;25.29;38.34;102310.72;5088452;28;20067;-83
2021/06/09 08:52:33;;;;;;;0.85;0.68;;;;;;;25.49;38.33;102307.69;5087460;28;20399;-84
2021/06/09 08:55:01;;;;;;;0.75;0.60;;;;;;;25.52;38.27;102307.53;5088899;28;20029;-84
2021/06/09 08:57:28;;;;;;;2.25;1.42;;;;;;;25.74;38.65;102300.78;5087635;28;20040;-84
2021/06/09 08:59:54;;;;;;;2.92;0.75;;;;;;;25.73;39.25;102304.44;5087818;28;20040;-84
2021/06/09 09:02:21;;;;;;;0.28;0.28;;;;;;;25.79;38.85;102306.78;5079213;22;20043;-81
2021/06/09 09:04:47;;;;;;;0.85;0.85;;;;;;;25.79;38.72;102303.22;5054311;28;20391;-81
2021/06/09 09:07:13;;;;;;;7.13;1.10;;;;;;;25.80;37.84;102315.81;5054421;28;20435;-81
2021/06/09 09:09:39;;;;;;;0.15;0.15;;;;;;;25.78;37.66;102306.88;5053962;28;20021;-81
2021/06/09 09:12:07;;;;;;;1.45;0.68;;;;;;;26.04;37.17;102307.97;5053438;28;20095;-80
2021/06/09 09:14:33;;;;;;;0.10;0.10;;;;;;;25.95;36.96;102311.28;5053978;28;20041;-78
2021/06/09 09:17:09;;;;;;;0.50;0.50;;;;;;;26.19;37.33;102305.31;5053931;28;20369;-82
2021/06/09 09:19:41;;;;;;;0.13;0.13;;;;;;;26.18;36.58;102311.72;5053483;28;20170;-82
2021/06/09 09:22:09;;;;;;;0.60;0.60;;;;;;;26.18;36.12;102317.13;5054121;28;20369;-82
2021/06/09 09:24:43;;;;;;;0.43;0.43;;;;;;;26.30;35.71;102302.78;5053861;28;20029;-83
2021/06/09 09:27:12;;;;;;;0.05;0.05;;;;;;;26.34;35.38;102312.47;5053244;28;20476;-82
2021/06/09 09:29:39;;;;;;;1.15;1.00;;;;;;;26.40;35.89;102306.66;5053073;28;20419;-82
2021/06/09 09:32:07;;;;;;;0.13;0.13;;;;;;;26.53;36.02;102314.91;5053533;28;20083;-82
2021/06/09 09:37:24;;;;;;;0.75;0.75;;;;;;;26.67;36.58;102311.28;5081549;28;20163;-82
2021/06/09 09:40:05;;;;;;;0.10;0.10;;;;;;;26.70;36.71;102311.06;5078610;28;20028;-82
2021/06/09 09:42:33;;;;;;;0.88;0.85;;;;;;;26.78;36.04;102308.75;5055867;28;20063;-81
2021/06/09 09:48:16;;;;;;;0.22;0.22;;;;;;;26.74;35.88;102318.09;5124314;27;20160;-81
2021/06/09 09:53:31;;;;;;;0.28;0.28;;;;;;;26.87;35.82;102296.41;5088257;27;20155;-81
2021/06/09 09:56:09;;;;;;;0.32;0.32;;;;;;;26.97;36.24;102299.38;5075726;28;20028;-81
2021/06/09 09:58:38;;;;;;;0.55;0.55;;;;;;;27.24;35.20;102309.34;5083389;28;20029;-81
2021/06/09 10:03:53;;;;;;;0.30;0.30;;;;;;;27.23;34.79;102311.22;5124374;27;21131;-82
2021/06/09 10:06:42;;;;;;;0.10;0.10;;;;;;;27.44;34.88;102302.56;5090305;28;20282;-81
2021/06/09 10:09:26;;;;;;;0.17;0.17;;;;;;;27.33;33.62;102306.03;5092140;28;20132;-81
2021/06/09 10:14:35;;;;;;;0.05;0.05;;;;;;;27.49;35.25;102302.25;5083510;27;20156;-81
2021/06/09 10:17:06;;;;;;;0.88;0.52;;;;;;;27.69;34.61;102301.75;5062781;28;20039;-80
2021/06/09 10:22:28;;;;;;;4.95;2.45;;;;;;;27.65;33.87;102294.75;5081838;27;20170;-81
2021/06/09 10:24:56;;;;;;;0.28;0.28;;;;;;;27.88;34.30;102292.31;5082650;28;20119;-81
2021/06/09 10:27:48;;;;;;;0.68;0.68;;;;;;;27.82;34.34;102299.03;5081262;28;20044;-81
2021/06/09 10:33:22;;;;;;;0.57;0.57;;;;;;;27.96;34.08;102299.91;5080710;28;20146;-83
2021/06/09 10:35:48;;;;;;;0.30;0.30;;;;;;;27.87;34.12;102290.56;5082499;28;20028;-82
2021/06/09 10:38:15;;;;;;;0.10;0.10;;;;;;;27.97;34.35;102297.06;5059316;28;20070;-83
2021/06/09 10:40:41;;;;;;;0.85;0.85;;;;;;;28.06;33.73;102290.13;5062983;28;20032;-85
2021/06/09 10:43:07;;;;;;;0.63;0.55;;;;;;;28.16;34.38;102290.34;5064065;28;20020;-82
2021/06/09 10:45:36;;;;;;;3.00;0.47;;;;;;;28.19;33.49;102285.53;5058429;28;20033;-82
2021/06/09 10:48:04;;;;;;;2.60;1.85;;;;;;;27.95;34.58;102300.91;5061545;28;20044;-83
2021/06/09 10:50:31;;;;;;;2.17;1.60;;;;;;;27.99;34.41;102288.78;5049966;28;20030;-81
2021/06/09 10:52:58;;;;;;;1.05;0.80;;;;;;;28.02;34.72;102288.59;5049193;28;20482;-84
2021/06/09 10:55:24;;;;;;;0.38;0.38;;;;;;;28.29;34.89;102288.47;5059257;28;20051;-82
2021/06/09 10:57:51;;;;;;;0.20;0.20;;;;;;;28.33;34.63;102295.44;5061299;28;20033;-82
2021/06/09 11:00:19;;;;;;;0.95;0.68;;;;;;;28.06;34.31;102287.41;5056250;28;20504;-81
2021/06/09 11:02:47;;;;;;;0.47;0.47;;;;;;;28.10;34.11;102294.38;5059855;28;20041;-81
2021/06/09 11:05:14;;;;;;;0.55;0.55;;;;;;;28.39;33.59;102295.00;5056035;28;20074;-81
2021/06/09 11:07:44;;;;;;;1.45;0.93;;;;;;;28.74;33.99;102282.50;5049971;28;20029;-81
2021/06/09 11:12:51;;;;;;;1.63;1.02;;;;;;;28.66;33.54;102299.41;5042142;27;20231;-81
2021/06/09 11:15:20;;;;;;;0.45;0.45;;;;;;;28.80;33.04;102281.16;5024803;28;20098;-81
2021/06/09 11:17:52;;;;;;;0.00;0.00;;;;;;;28.83;32.40;102287.25;5021088;28;20095;-80
2021/06/09 11:23:08;;;;;;;0.40;0.40;;;;;;;29.25;33.51;102291.41;5075116;28;20137;-82
2021/06/09 11:31:01;;;;;;;1.88;0.75;;;;;;;29.28;32.27;102291.19;5126134;27;20491;-82
2021/06/09 11:33:32;;;;;;;0.10;0.10;;;;;;;29.28;31.96;102291.19;5110552;28;20035;-82
2021/06/09 11:36:01;;;;;;;1.90;0.52;;;;;;;29.25;33.34;102300.47;5110267;28;20039;-82
2021/06/09 11:38:29;;;;;;;0.20;0.20;;;;;;;28.91;32.11;102286.66;5096515;28;20089;-81
2021/06/09 11:43:41;;;;;;;1.38;0.82;;;;;;;29.40;33.00;102278.44;5084501;27;20149;-81
2021/06/09 11:49:09;;;;;;;0.28;0.28;;;;;;;29.45;33.31;102289.91;5109004;27;20135;-82
2021/06/09 11:54:27;;;;;;;0.52;0.52;;;;;;;29.26;33.26;102279.50;5068104;28;20168;-83
2021/06/09 11:59:36;;;;;;;0.32;0.32;;;;;;;29.25;34.77;102278.63;5076514;27;20497;-82
2021/06/09 12:02:08;;;;;;;1.23;1.15;;;;;;;29.34;33.68;102269.75;5056910;28;20104;-82
2021/06/09 12:09:56;;;;;;;0.28;0.28;;;;;;;29.50;33.07;102274.03;5089024;27;20170;-82
2021/06/09 12:12:25;;;;;;;1.30;1.20;;;;;;;29.73;33.06;102276.81;5076040;28;20487;-82
2021/06/09 12:14:56;;;;;;;1.55;0.95;;;;;;;29.88;32.23;102281.03;5069872;28;20120;-82
2021/06/09 12:17:26;;;;;;;0.43;0.43;;;;;;;29.78;32.79;102266.38;5069772;28;20025;-82
2021/06/09 12:20:07;;;;;;;1.58;1.02;;;;;;;29.91;32.07;102274.47;5069646;28;20036;-82
2021/06/09 12:22:33;;;;;;;5.57;2.22;;;;;;;29.98;32.20;102271.16;5069944;28;20109;-83
2021/06/09 12:28:09;;;;;;;0.95;0.68;;;;;;;29.80;32.27;102268.00;5067490;28;20400;-82
2021/06/09 12:30:42;;;;;;;0.10;0.10;;;;;;;29.51;32.58;102273.91;5069641;28;20032;-82
2021/06/09 12:33:08;;;;;;;0.47;0.47;;;;;;;29.42;32.25;102271.03;5050020;28;20033;-83
2021/06/09 12:35:34;;;;;;;0.57;0.57;;;;;;;29.56;32.39;102265.34;5049631;28;20496;-83
2021/06/09 12:38:04;;;;;;;0.20;0.20;;;;;;;29.58;33.13;102266.09;5049922;28;20120;-83